Main page
METAR-TAF:

METAR-TAF

Airports :

Coventry, England

Coventry Airport

latitude: 52-22N, longitude: 001-29W, elevation: 82 m

Current weather observation

The report was made 26 minutes ago, at 08:50 UTC
Wind 11 kt from the South/Southwest
Temperature 13°C
Humidity 94%
Pressure 1019 hPa
Visibility: 9000 m
Few clouds at a height of 1200 ft

METAR: EGBE 290850Z 21011KT 9000 FEW012 13/12 Q1019

Time: 10:16 (09:16 UTC)

Forecast

The report was made 1 hour and 13 minutes ago, at 08:03 UTC
Forecast valid from 29 at 09 UTC to 29 at 18 UTC
Wind 9 kt from the South/Southwest
Visibility 10 km or more
Scattered clouds at a height of 1500 ft
Temporary
from 29 at 09 UTC to 29 at 15 UTC
Visibility: 9000 m
Broken clouds at a height of 1300 ft
light rain

TAF: EGBE 290803Z 2909/2918 20009KT 9999 SCT015 TEMPO 2909/2915 9000 -RA BKN013

Weather observations and forecasts of more than 4000 airports (METAR and TAF reports).

The available stations are represented by yellow and red dots on the map.

Hover mouse over dot to see the name of the station.

Then click to see weather observations and forecasts.

To change the map : click on the green buttons with a black cross to zoom in, on the green button with a dash to zoom out, or on the green arrows for adjacent maps.


METAR-TAF: